createdAt,value
2023-01-08T00:00:40.153Z,47.37
2023-01-08T00:01:39.916Z,49.59
2023-01-08T00:02:40.038Z,50.91
2023-01-08T00:03:40.122Z,47.77
2023-01-08T00:04:39.906Z,50.75
2023-01-08T00:05:39.970Z,51.52
2023-01-08T00:06:39.874Z,49.39
2023-01-08T00:07:39.963Z,51.05
2023-01-08T00:08:39.887Z,50.45
2023-01-08T00:09:39.837Z,49.08
2023-01-08T00:10:39.877Z,47.82
2023-01-08T00:11:39.852Z,47.59
2023-01-08T00:12:39.835Z,49.62
2023-01-08T00:13:39.872Z,51.54
2023-01-08T00:14:39.838Z,49.50
2023-01-08T00:15:39.847Z,50.09
2023-01-08T00:16:39.995Z,48.03
2023-01-08T00:17:39.800Z,48.44
2023-01-08T00:18:39.859Z,49.11
2023-01-08T00:19:39.793Z,48.20
2023-01-08T00:20:39.763Z,48.53
2023-01-08T00:21:39.815Z,49.70
2023-01-08T00:22:39.802Z,49.29
2023-01-08T00:23:39.755Z,49.95
2023-01-08T00:24:39.829Z,50.54
2023-01-08T00:25:39.761Z,50.27
2023-01-08T00:26:39.801Z,50.12
2023-01-08T00:27:39.753Z,49.62
2023-01-08T00:28:39.771Z,50.19
2023-01-08T00:30:01.770Z,52.26
2023-01-08T00:30:40.683Z,49.32
2023-01-08T00:31:39.732Z,49.12
2023-01-08T00:32:39.760Z,47.79
2023-01-08T00:33:39.699Z,48.54
2023-01-08T00:34:40.483Z,49.73
2023-01-08T00:35:39.705Z,47.31
2023-01-08T00:36:39.629Z,48.51
2023-01-08T00:37:39.575Z,47.12
2023-01-08T00:38:39.549Z,50.06
2023-01-08T00:39:39.579Z,52.17
2023-01-08T00:40:39.586Z,49.69
2023-01-08T00:41:39.587Z,49.15
2023-01-08T00:42:39.563Z,48.21
2023-01-08T00:43:39.561Z,49.31
2023-01-08T00:44:39.576Z,48.60
2023-01-08T00:45:39.591Z,48.74
2023-01-08T00:46:40.029Z,49.78
2023-01-08T00:47:39.594Z,48.90
2023-01-08T00:48:39.653Z,49.26
2023-01-08T00:49:39.601Z,48.75
2023-01-08T00:50:39.545Z,48.12
2023-01-08T00:51:39.659Z,48.58
2023-01-08T00:52:39.550Z,50.77
2023-01-08T00:53:39.552Z,49.93
2023-01-08T00:54:39.531Z,51.13
2023-01-08T00:55:39.606Z,48.32
2023-01-08T00:56:39.519Z,48.84
2023-01-08T00:57:39.584Z,49.64
2023-01-08T00:58:39.522Z,49.24
2023-01-08T00:59:39.495Z,48.06
2023-01-08T01:00:39.512Z,47.80
2023-01-08T01:01:39.568Z,49.05
2023-01-08T01:02:39.493Z,50.84
2023-01-08T01:03:39.526Z,48.99
2023-01-08T01:04:39.524Z,46.67
2023-01-08T01:05:39.452Z,49.75
2023-01-08T01:06:39.502Z,50.34
2023-01-08T01:07:39.427Z,47.85
2023-01-08T01:08:39.497Z,47.69
2023-01-08T01:09:39.409Z,48.77
2023-01-08T01:10:39.441Z,48.10
2023-01-08T01:11:39.398Z,47.42
2023-01-08T01:12:39.352Z,46.49
2023-01-08T01:13:39.363Z,47.72
2023-01-08T01:14:39.312Z,47.87
2023-01-08T01:15:39.307Z,50.28
2023-01-08T01:16:39.330Z,48.50
2023-01-08T01:17:39.351Z,49.35
2023-01-08T01:18:39.274Z,46.77
2023-01-08T01:19:39.303Z,47.32
2023-01-08T01:20:39.358Z,47.13
2023-01-08T01:21:39.246Z,47.35
2023-01-08T01:22:39.222Z,47.74
2023-01-08T01:23:39.212Z,48.00
2023-01-08T01:24:39.279Z,47.11
2023-01-08T01:25:39.281Z,46.59
2023-01-08T01:26:39.252Z,47.79
2023-01-08T01:27:39.242Z,45.87
2023-01-08T01:28:39.245Z,48.25
2023-01-08T01:29:39.266Z,46.98
2023-01-08T01:30:39.662Z,46.99
2023-01-08T01:31:39.266Z,47.93
2023-01-08T01:32:39.254Z,48.96
2023-01-08T01:33:39.284Z,46.24
2023-01-08T01:34:39.280Z,45.86
2023-01-08T01:35:39.262Z,47.41
2023-01-08T01:36:39.375Z,48.78
2023-01-08T01:37:39.197Z,47.00
2023-01-08T01:38:39.325Z,45.72
2023-01-08T01:39:39.232Z,46.67
2023-01-08T01:40:39.196Z,47.21
2023-01-08T01:41:39.296Z,48.09
2023-01-08T01:42:39.220Z,46.25
2023-01-08T01:43:39.184Z,48.34
2023-01-08T01:44:39.179Z,48.05
2023-01-08T01:45:39.213Z,49.96
2023-01-08T01:46:39.387Z,48.65
2023-01-08T01:47:39.126Z,48.37
2023-01-08T01:48:39.120Z,48.86
2023-01-08T01:49:39.110Z,47.40
2023-01-08T01:50:39.108Z,48.36
2023-01-08T01:51:39.143Z,48.48
2023-01-08T01:52:39.203Z,48.19
2023-01-08T01:53:39.156Z,48.29
2023-01-08T01:54:39.076Z,47.59
2023-01-08T01:55:39.111Z,48.42
2023-01-08T01:56:39.089Z,47.12
2023-01-08T01:57:39.160Z,46.41
2023-01-08T01:58:39.066Z,46.43
2023-01-08T01:59:39.135Z,46.69
2023-01-08T02:00:39.075Z,46.75
2023-01-08T02:01:39.233Z,46.44
2023-01-08T02:02:39.051Z,47.89
2023-01-08T02:03:39.076Z,47.59
2023-01-08T02:04:39.065Z,50.27
2023-01-08T02:05:39.011Z,49.06
2023-01-08T02:06:39.013Z,48.52
2023-01-08T02:07:39.015Z,48.25
2023-01-08T02:08:39.082Z,47.16
2023-01-08T02:09:38.922Z,46.93
2023-01-08T02:10:38.962Z,46.82
2023-01-08T02:11:38.953Z,46.99
2023-01-08T02:12:38.882Z,47.82
2023-01-08T02:13:38.909Z,47.15
2023-01-08T02:14:38.942Z,47.34
2023-01-08T02:15:38.822Z,49.71
2023-01-08T02:16:38.880Z,50.84
2023-01-08T02:17:38.857Z,47.74
2023-01-08T02:18:38.980Z,46.61
2023-01-08T02:19:38.927Z,47.04
2023-01-08T02:20:38.861Z,46.91
2023-01-08T02:21:38.841Z,46.76
2023-01-08T02:22:38.816Z,49.30
2023-01-08T02:23:38.808Z,48.41
2023-01-08T02:24:39.064Z,49.34
2023-01-08T02:25:38.905Z,47.58
2023-01-08T02:26:38.862Z,49.07
2023-01-08T02:27:38.853Z,47.00
2023-01-08T02:28:38.874Z,48.88
2023-01-08T02:29:38.834Z,47.73
2023-01-08T02:30:38.861Z,47.49
2023-01-08T02:31:38.818Z,48.94
2023-01-08T02:32:38.794Z,51.55
2023-01-08T02:33:38.881Z,47.69
2023-01-08T02:34:38.820Z,47.76
2023-01-08T02:35:38.836Z,48.82
2023-01-08T02:36:38.792Z,46.82
2023-01-08T02:37:38.776Z,46.84
2023-01-08T02:38:38.782Z,48.21
2023-01-08T02:39:38.817Z,46.57
2023-01-08T02:40:38.766Z,47.31
2023-01-08T02:41:38.864Z,47.02
2023-01-08T02:42:38.744Z,46.72
2023-01-08T02:43:38.852Z,48.37
2023-01-08T02:44:38.763Z,47.63
2023-01-08T02:45:38.817Z,49.21
2023-01-08T02:46:38.746Z,47.38
2023-01-08T02:47:38.691Z,47.57
2023-01-08T02:48:38.687Z,47.79
2023-01-08T02:49:38.693Z,51.48
2023-01-08T02:50:38.722Z,46.96
2023-01-08T02:51:38.674Z,46.95
2023-01-08T02:52:38.932Z,46.70
2023-01-08T02:53:38.710Z,47.24
2023-01-08T02:54:38.650Z,47.88
2023-01-08T02:55:38.632Z,46.42
2023-01-08T02:56:38.721Z,48.28
2023-01-08T02:57:38.705Z,47.76
2023-01-08T02:58:38.607Z,48.22
2023-01-08T02:59:38.607Z,46.84
2023-01-08T03:00:38.751Z,48.21
2023-01-08T03:01:38.718Z,48.44
2023-01-08T03:02:38.560Z,47.73
2023-01-08T03:03:38.562Z,47.70
2023-01-08T03:04:38.576Z,48.04
2023-01-08T03:05:38.515Z,48.20
2023-01-08T03:06:38.635Z,47.69
2023-01-08T03:07:38.572Z,48.50
2023-01-08T03:08:38.716Z,48.02
2023-01-08T03:09:38.545Z,47.53
2023-01-08T03:10:38.523Z,46.88
2023-01-08T03:11:38.561Z,47.08
2023-01-08T03:12:38.580Z,47.74
2023-01-08T03:13:39.585Z,50.32
2023-01-08T03:14:38.552Z,50.30
2023-01-08T03:15:38.533Z,50.24
2023-01-08T03:16:38.561Z,48.14
2023-01-08T03:17:38.518Z,48.67
2023-01-08T03:18:38.532Z,49.44
2023-01-08T03:19:38.489Z,49.35
2023-01-08T03:20:38.482Z,48.81
2023-01-08T03:21:38.444Z,49.20
2023-01-08T03:22:38.492Z,49.03
2023-01-08T03:23:38.529Z,50.78
2023-01-08T03:24:38.478Z,48.46
2023-01-08T03:25:38.538Z,49.03
2023-01-08T03:26:38.391Z,50.61
2023-01-08T03:27:38.470Z,50.25
2023-01-08T03:28:38.463Z,48.80
2023-01-08T03:29:38.569Z,49.45
2023-01-08T03:30:38.425Z,48.18
2023-01-08T03:31:38.413Z,47.99
2023-01-08T03:32:38.403Z,50.38
2023-01-08T03:33:38.370Z,48.80
2023-01-08T03:34:38.347Z,46.98
2023-01-08T03:35:38.376Z,47.90
2023-01-08T03:36:38.377Z,49.70
2023-01-08T03:37:38.325Z,47.46
2023-01-08T03:38:38.356Z,49.66
2023-01-08T03:39:38.317Z,47.30
2023-01-08T03:40:38.387Z,49.22
2023-01-08T03:41:38.233Z,50.84
2023-01-08T03:42:38.254Z,48.33
2023-01-08T03:43:38.248Z,47.05
2023-01-08T03:44:38.298Z,46.71
2023-01-08T03:45:38.252Z,46.82
2023-01-08T03:46:38.305Z,47.60
2023-01-08T03:47:38.182Z,50.81
2023-01-08T03:48:38.234Z,50.03
2023-01-08T03:49:38.209Z,51.60
2023-01-08T03:50:38.222Z,48.50
2023-01-08T03:51:38.305Z,47.12
2023-01-08T03:52:38.212Z,48.00
2023-01-08T03:53:38.268Z,49.11
2023-01-08T03:54:38.232Z,49.34
2023-01-08T03:55:38.291Z,48.70
2023-01-08T03:56:38.208Z,49.29
2023-01-08T03:57:38.460Z,47.45
2023-01-08T03:58:38.188Z,49.35
2023-01-08T03:59:38.201Z,48.19
2023-01-08T04:00:38.274Z,47.57
2023-01-08T04:01:38.226Z,48.22
2023-01-08T04:02:38.268Z,50.36
2023-01-08T04:03:38.114Z,48.48
2023-01-08T04:04:38.224Z,48.97
2023-01-08T04:05:38.151Z,51.11
2023-01-08T04:06:38.147Z,49.06
2023-01-08T04:07:38.129Z,50.43
2023-01-08T04:08:38.241Z,49.02
2023-01-08T04:09:38.084Z,49.59
2023-01-08T04:10:38.174Z,49.44
2023-01-08T04:11:38.096Z,50.52
2023-01-08T04:12:38.128Z,50.18
2023-01-08T04:13:38.094Z,48.33
2023-01-08T04:14:38.069Z,48.57
2023-01-08T04:15:38.116Z,49.15
2023-01-08T04:16:38.146Z,49.69
2023-01-08T04:17:38.066Z,50.03
2023-01-08T04:18:38.104Z,48.98
2023-01-08T04:19:38.136Z,49.68
2023-01-08T04:20:38.035Z,48.63
2023-01-08T04:21:39.029Z,48.75
2023-01-08T04:22:38.079Z,48.36
2023-01-08T04:23:37.998Z,49.70
2023-01-08T04:24:38.059Z,49.90
2023-01-08T04:25:38.051Z,49.57
2023-01-08T04:26:37.993Z,49.16
2023-01-08T04:27:37.912Z,50.43
2023-01-08T04:28:37.927Z,48.05
2023-01-08T04:29:37.919Z,49.63
2023-01-08T04:30:37.865Z,50.62
2023-01-08T04:31:37.883Z,49.14
2023-01-08T04:32:37.920Z,48.93
2023-01-08T04:33:38.073Z,49.74
2023-01-08T04:34:37.928Z,49.31
2023-01-08T04:35:37.953Z,48.80
2023-01-08T04:36:37.947Z,49.84
2023-01-08T04:37:37.984Z,48.72
2023-01-08T04:38:37.973Z,49.14
2023-01-08T04:39:37.919Z,47.94
2023-01-08T04:40:37.915Z,48.39
2023-01-08T04:41:38.648Z,49.32
2023-01-08T04:42:37.884Z,48.83
2023-01-08T04:43:37.892Z,49.32
2023-01-08T04:44:37.884Z,51.22
2023-01-08T04:45:37.879Z,49.19
2023-01-08T04:46:37.891Z,51.29
2023-01-08T04:47:37.844Z,49.63
2023-01-08T04:48:37.948Z,49.42
2023-01-08T04:49:37.875Z,49.91
2023-01-08T04:50:37.833Z,50.50
2023-01-08T04:51:37.834Z,49.60
2023-01-08T04:52:37.898Z,49.14
2023-01-08T04:53:37.841Z,49.32
2023-01-08T04:54:37.804Z,48.86
2023-01-08T04:55:39.691Z,48.34
2023-01-08T04:56:37.754Z,47.82
2023-01-08T04:57:38.040Z,48.74
2023-01-08T04:58:37.738Z,48.06
2023-01-08T04:59:37.731Z,48.16
2023-01-08T05:00:37.704Z,49.61
2023-01-08T05:01:37.886Z,48.90
2023-01-08T05:02:38.016Z,48.84
2023-01-08T05:03:37.784Z,48.41
2023-01-08T05:04:37.807Z,47.90
2023-01-08T05:05:37.682Z,48.96
2023-01-08T05:06:37.683Z,49.33
2023-01-08T05:07:37.726Z,49.22
2023-01-08T05:08:37.753Z,49.53
2023-01-08T05:09:37.667Z,51.20
2023-01-08T05:10:37.759Z,47.97
2023-01-08T05:11:37.703Z,48.04
2023-01-08T05:12:37.706Z,49.07
2023-01-08T05:13:37.683Z,50.30
2023-01-08T05:14:37.705Z,50.32
2023-01-08T05:15:37.788Z,50.02
2023-01-08T05:16:37.662Z,50.34
2023-01-08T05:17:37.719Z,50.37
2023-01-08T05:18:37.588Z,51.24
2023-01-08T05:19:38.401Z,53.80
2023-01-08T05:20:38.749Z,54.00
2023-01-08T05:21:37.606Z,51.43
2023-01-08T05:22:37.493Z,53.54
2023-01-08T05:23:37.506Z,54.21
2023-01-08T05:24:37.491Z,55.22
2023-01-08T05:25:37.567Z,54.84
2023-01-08T05:26:37.475Z,54.17
2023-01-08T05:27:37.551Z,53.61
2023-01-08T05:28:37.451Z,50.27
2023-01-08T05:29:37.489Z,50.61
2023-01-08T05:30:37.448Z,51.18
2023-01-08T05:31:37.439Z,51.02
2023-01-08T05:32:37.573Z,51.95
2023-01-08T05:33:37.611Z,50.82
2023-01-08T05:34:37.494Z,50.79
2023-01-08T05:35:37.617Z,53.16
2023-01-08T05:36:37.521Z,52.97
2023-01-08T05:37:37.501Z,52.92
2023-01-08T05:38:37.442Z,53.45
2023-01-08T05:39:37.465Z,52.77
2023-01-08T05:40:37.448Z,52.75
2023-01-08T05:41:37.509Z,53.82
2023-01-08T05:42:37.416Z,55.77
2023-01-08T05:43:37.456Z,55.81
2023-01-08T05:44:37.424Z,56.10
2023-01-08T05:45:37.458Z,56.31
2023-01-08T05:46:37.507Z,56.20
2023-01-08T05:47:37.438Z,56.46
2023-01-08T05:48:37.387Z,56.61
2023-01-08T05:49:37.491Z,56.93
2023-01-08T05:50:37.419Z,57.91
2023-01-08T05:51:37.407Z,57.91
2023-01-08T05:52:37.552Z,56.35
2023-01-08T05:53:37.368Z,55.67
2023-01-08T05:54:37.414Z,55.11
2023-01-08T05:55:37.370Z,54.24
2023-01-08T05:56:37.367Z,54.62
2023-01-08T05:57:37.728Z,54.96
2023-01-08T05:58:37.265Z,53.96
2023-01-08T05:59:37.223Z,53.97
2023-01-08T06:00:37.248Z,52.36
2023-01-08T06:01:37.290Z,52.26
2023-01-08T06:02:37.236Z,51.95
2023-01-08T06:03:37.220Z,52.99
2023-01-08T06:04:37.310Z,53.47
2023-01-08T06:05:37.176Z,53.81
2023-01-08T06:06:37.244Z,53.44
2023-01-08T06:07:37.307Z,52.99
2023-01-08T06:08:37.348Z,53.57
2023-01-08T06:09:37.254Z,52.87
2023-01-08T06:10:37.212Z,52.52
2023-01-08T06:11:37.240Z,52.63
2023-01-08T06:12:37.225Z,51.94
2023-01-08T06:13:37.231Z,51.53
2023-01-08T06:14:37.213Z,51.84
2023-01-08T06:15:37.279Z,53.13
2023-01-08T06:16:37.147Z,53.63
2023-01-08T06:17:37.213Z,54.54
2023-01-08T06:18:37.172Z,52.22
2023-01-08T06:19:37.253Z,52.11
2023-01-08T06:20:37.175Z,51.01
2023-01-08T06:21:37.170Z,52.12
2023-01-08T06:22:37.112Z,53.43
2023-01-08T06:23:37.123Z,51.44
2023-01-08T06:24:37.268Z,52.09
2023-01-08T06:25:37.299Z,51.35
2023-01-08T06:26:37.126Z,51.72
2023-01-08T06:27:38.767Z,52.15
2023-01-08T06:28:37.147Z,53.97
2023-01-08T06:29:37.133Z,52.13
2023-01-08T06:30:37.091Z,50.84
2023-01-08T06:31:37.188Z,51.47
2023-01-08T06:32:37.111Z,51.46
2023-01-08T06:33:37.075Z,51.64
2023-01-08T06:34:37.105Z,52.04
2023-01-08T06:35:37.068Z,52.74
2023-01-08T06:36:37.678Z,51.45
2023-01-08T06:37:37.043Z,51.56
2023-01-08T06:38:37.128Z,52.46
2023-01-08T06:39:36.987Z,51.49
2023-01-08T06:40:37.159Z,51.85
2023-01-08T06:41:37.035Z,50.68
2023-01-08T06:42:37.032Z,50.40
2023-01-08T06:43:36.932Z,52.33
2023-01-08T06:44:36.905Z,52.96
2023-01-08T06:45:36.903Z,54.01
2023-01-08T06:46:36.943Z,53.04
2023-01-08T06:47:36.923Z,54.13
2023-01-08T06:48:36.951Z,53.95
2023-01-08T06:49:36.883Z,52.91
2023-01-08T06:50:36.888Z,53.51
2023-01-08T06:51:36.926Z,53.71
2023-01-08T06:52:36.962Z,54.38
2023-01-08T06:53:37.851Z,55.43
2023-01-08T06:54:36.803Z,54.80
2023-01-08T06:55:36.903Z,54.62
2023-01-08T06:56:52.297Z,53.62
2023-01-08T06:57:39.089Z,52.95
2023-01-08T06:58:36.828Z,53.44
2023-01-08T06:59:36.811Z,52.83
2023-01-08T07:00:36.876Z,51.75
2023-01-08T07:01:36.954Z,50.95
2023-01-08T07:02:37.087Z,51.27
2023-01-08T07:03:37.013Z,51.10
2023-01-08T07:04:36.845Z,51.73
2023-01-08T07:05:36.846Z,52.24
2023-01-08T07:06:36.814Z,52.14
2023-01-08T07:07:36.850Z,52.38
2023-01-08T07:08:36.846Z,50.25
2023-01-08T07:09:36.770Z,51.37
2023-01-08T07:10:36.819Z,49.58
2023-01-08T07:11:36.802Z,51.71
2023-01-08T07:12:36.880Z,49.60
2023-01-08T07:13:36.775Z,50.15
2023-01-08T07:14:36.854Z,51.41
2023-01-08T07:15:36.780Z,51.44
2023-01-08T07:16:36.796Z,52.85
2023-01-08T07:17:36.732Z,56.79
2023-01-08T07:18:36.735Z,54.48
2023-01-08T07:19:36.734Z,54.67
2023-01-08T07:20:36.755Z,52.90
2023-01-08T07:21:36.822Z,49.08
2023-01-08T07:22:36.814Z,51.25
2023-01-08T07:23:36.684Z,52.71
2023-01-08T07:24:36.850Z,51.66
2023-01-08T07:25:36.725Z,50.49
2023-01-08T07:26:36.797Z,52.60
2023-01-08T07:27:36.686Z,51.75
2023-01-08T07:28:37.390Z,51.84
2023-01-08T07:29:36.614Z,53.21
2023-01-08T07:30:36.654Z,50.85
2023-01-08T07:31:36.649Z,49.39
2023-01-08T07:32:36.561Z,49.11
2023-01-08T07:33:36.540Z,52.11
2023-01-08T07:34:36.611Z,56.98
2023-01-08T07:35:36.586Z,56.37
2023-01-08T07:36:36.559Z,55.65
2023-01-08T07:37:36.586Z,55.28
2023-01-08T07:38:36.623Z,56.08
2023-01-08T07:39:36.608Z,59.72
2023-01-08T07:40:39.198Z,57.78
2023-01-08T07:41:36.619Z,57.06
2023-01-08T07:42:36.604Z,57.86
2023-01-08T07:43:36.658Z,56.88
2023-01-08T07:44:36.649Z,54.46
2023-01-08T07:45:36.622Z,56.31
2023-01-08T07:46:36.671Z,60.06
2023-01-08T07:47:36.609Z,58.60
2023-01-08T07:48:36.548Z,56.37
2023-01-08T07:49:36.589Z,60.86
2023-01-08T07:50:36.567Z,56.88
2023-01-08T07:51:36.513Z,59.41
2023-01-08T07:52:36.632Z,59.24
2023-01-08T07:53:36.536Z,57.10
2023-01-08T07:54:36.520Z,56.05
2023-01-08T07:55:36.545Z,54.19
2023-01-08T07:56:36.450Z,54.09
2023-01-08T07:57:36.580Z,51.26
2023-01-08T07:58:36.550Z,52.08
2023-01-08T07:59:36.472Z,51.53
2023-01-08T08:00:36.536Z,51.59
2023-01-08T08:01:36.595Z,51.35
2023-01-08T08:02:36.676Z,52.78
2023-01-08T08:03:37.134Z,52.60
2023-01-08T08:04:36.494Z,51.28
2023-01-08T08:05:36.451Z,52.51
2023-01-08T08:06:36.414Z,51.78
2023-01-08T08:10:45.888Z,52.30
2023-01-08T08:11:45.771Z,55.73
2023-01-08T08:12:45.842Z,54.33
2023-01-08T08:13:45.779Z,53.56
2023-01-08T08:14:45.790Z,54.23
2023-01-08T08:15:45.877Z,54.26
2023-01-08T08:16:45.759Z,54.14
2023-01-08T08:17:45.788Z,54.40
2023-01-08T08:18:45.790Z,51.27
2023-01-08T08:19:45.742Z,49.94
2023-01-08T08:20:46.317Z,52.07
2023-01-08T08:21:45.886Z,51.99
2023-01-08T08:22:45.780Z,54.09
2023-01-08T08:23:45.633Z,53.43
2023-01-08T08:24:45.658Z,52.15
2023-01-08T08:25:45.654Z,51.29
2023-01-08T08:26:45.654Z,52.44
2023-01-08T08:27:45.644Z,54.91
2023-01-08T08:28:45.611Z,53.73
2023-01-08T08:29:45.611Z,51.85
2023-01-08T08:30:45.700Z,52.35
2023-01-08T08:31:45.695Z,53.26
2023-01-08T08:32:45.617Z,52.41
2023-01-08T08:33:45.626Z,53.90
2023-01-08T08:34:46.694Z,53.69
2023-01-08T08:35:45.622Z,52.08
2023-01-08T08:36:45.649Z,51.39
2023-01-08T08:37:45.707Z,53.25
2023-01-08T08:38:45.592Z,52.44
2023-01-08T08:39:45.609Z,52.68
2023-01-08T08:40:45.604Z,50.81
2023-01-08T08:41:45.577Z,50.58
2023-01-08T08:42:45.610Z,52.38
2023-01-08T08:43:45.541Z,52.83
2023-01-08T08:44:45.559Z,51.23
2023-01-08T08:45:45.536Z,52.79
2023-01-08T08:46:45.687Z,52.20
2023-01-08T08:47:45.694Z,52.95
2023-01-08T08:48:45.546Z,54.61
2023-01-08T08:49:45.621Z,54.48
2023-01-08T08:50:45.574Z,51.45
2023-01-08T08:51:45.611Z,53.82
2023-01-08T08:52:45.549Z,53.51
2023-01-08T08:53:45.653Z,54.60
2023-01-08T08:54:45.551Z,51.31
2023-01-08T08:55:45.481Z,54.21
2023-01-08T08:56:45.526Z,51.72
2023-01-08T08:57:45.515Z,54.50
2023-01-08T08:58:45.519Z,53.70
2023-01-08T08:59:45.501Z,54.07
2023-01-08T09:00:45.475Z,54.34
2023-01-08T09:01:45.589Z,54.22
2023-01-08T09:02:45.533Z,53.61
2023-01-08T09:03:45.958Z,53.30
2023-01-08T09:04:45.531Z,53.88
2023-01-08T09:05:45.469Z,51.68
2023-01-08T09:06:45.408Z,53.06
2023-01-08T09:07:45.402Z,53.96
2023-01-08T09:08:45.446Z,52.95
2023-01-08T09:09:45.376Z,53.56
2023-01-08T09:10:45.441Z,53.20
2023-01-08T09:11:45.363Z,54.21
2023-01-08T09:12:45.300Z,51.77
2023-01-08T09:13:45.332Z,52.92
2023-01-08T09:14:45.323Z,53.66
2023-01-08T09:15:45.312Z,53.81
2023-01-08T09:16:45.354Z,55.37
2023-01-08T09:17:45.317Z,53.41
2023-01-08T09:18:45.277Z,52.35
2023-01-08T09:19:45.688Z,53.58
2023-01-08T09:20:45.301Z,53.94
2023-01-08T09:21:45.257Z,54.37
2023-01-08T09:22:45.227Z,53.93
2023-01-08T09:23:45.201Z,54.75
2023-01-08T09:24:45.208Z,53.18
2023-01-08T09:25:45.360Z,57.24
2023-01-08T09:26:45.280Z,60.89
2023-01-08T09:27:45.281Z,56.18
2023-01-08T09:28:45.211Z,60.71
2023-01-08T09:29:45.272Z,56.85
2023-01-08T09:30:45.378Z,55.36
2023-01-08T09:31:45.333Z,57.00
2023-01-08T09:32:45.255Z,52.67
2023-01-08T09:33:45.218Z,53.57
2023-01-08T09:34:45.235Z,54.02
2023-01-08T09:35:45.330Z,55.00
2023-01-08T09:36:45.301Z,54.84
2023-01-08T09:37:45.419Z,56.19
2023-01-08T09:38:45.193Z,53.20
2023-01-08T09:39:50.999Z,54.35
2023-01-08T09:40:47.231Z,52.44
2023-01-08T09:41:45.197Z,52.88
2023-01-08T09:42:45.143Z,52.50
2023-01-08T09:43:45.177Z,53.61
2023-01-08T09:44:45.193Z,53.12
2023-01-08T09:45:45.183Z,54.51
2023-01-08T09:46:45.180Z,55.68
2023-01-08T09:47:45.158Z,55.90
2023-01-08T09:48:45.101Z,54.79
2023-01-08T09:49:45.300Z,56.37
2023-01-08T09:50:45.106Z,54.45
2023-01-08T09:51:45.067Z,53.42
2023-01-08T09:52:45.086Z,56.35
2023-01-08T09:53:44.970Z,53.66
2023-01-08T09:54:45.122Z,56.08
2023-01-08T09:55:45.042Z,55.68
2023-01-08T09:56:44.950Z,60.31
2023-01-08T09:57:44.976Z,56.42
2023-01-08T09:58:45.138Z,56.00
2023-01-08T09:59:45.041Z,56.09
2023-01-08T10:00:45.416Z,55.44
2023-01-08T10:01:45.088Z,54.98
2023-01-08T10:02:45.082Z,54.63
2023-01-08T10:03:45.037Z,51.58
2023-01-08T10:04:45.248Z,51.95
2023-01-08T10:05:45.014Z,52.96
2023-01-08T10:06:45.000Z,53.33
2023-01-08T10:07:45.131Z,56.17
2023-01-08T10:09:45.047Z,56.01
2023-01-08T10:10:44.948Z,53.40
2023-01-08T10:11:44.961Z,53.85
2023-01-08T10:12:44.964Z,52.50
2023-01-08T10:13:44.935Z,53.67
2023-01-08T10:14:45.017Z,54.91
2023-01-08T10:15:44.874Z,56.28
2023-01-08T10:16:45.169Z,53.99
2023-01-08T10:17:44.956Z,54.98
2023-01-08T10:18:44.972Z,57.73
2023-01-08T10:19:45.176Z,56.60
2023-01-08T10:20:45.052Z,55.55
2023-01-08T10:21:45.079Z,54.25
2023-01-08T10:22:44.906Z,53.27
2023-01-08T10:23:45.232Z,55.34
2023-01-08T10:24:44.962Z,55.80
2023-01-08T10:25:45.015Z,55.08
2023-01-08T10:26:45.350Z,55.39
2023-01-08T10:27:45.020Z,56.22
2023-01-08T10:28:45.208Z,54.03
2023-01-08T10:29:45.208Z,54.63
2023-01-08T10:30:45.024Z,53.42
2023-01-08T10:31:45.296Z,53.79
2023-01-08T10:32:44.877Z,55.70
2023-01-08T10:33:44.985Z,54.91
2023-01-08T10:34:44.919Z,54.28
2023-01-08T10:35:45.140Z,54.83
2023-01-08T10:36:45.249Z,57.26
2023-01-08T10:37:44.780Z,55.24
2023-01-08T10:38:44.845Z,57.12
2023-01-08T10:39:44.807Z,53.47
2023-01-08T10:40:44.877Z,56.52
2023-01-08T10:41:44.705Z,55.11
2023-01-08T10:42:44.761Z,54.34
2023-01-08T10:43:44.744Z,56.44
2023-01-08T10:44:44.791Z,56.60
2023-01-08T10:45:44.916Z,53.81
2023-01-08T10:46:45.774Z,52.80
2023-01-08T10:47:44.644Z,54.29
2023-01-08T10:48:44.728Z,56.42
2023-01-08T10:49:45.269Z,57.40
2023-01-08T10:50:44.907Z,58.78
2023-01-08T10:51:45.442Z,59.33
2023-01-08T10:52:45.399Z,58.89
2023-01-08T10:53:45.366Z,56.48
2023-01-08T10:54:45.112Z,54.16
2023-01-08T10:55:45.055Z,55.81
2023-01-08T10:56:45.181Z,54.51
2023-01-08T10:57:44.758Z,54.78
2023-01-08T10:58:44.995Z,56.73
2023-01-08T10:59:44.690Z,54.21
2023-01-08T11:00:45.121Z,55.95
2023-01-08T11:01:45.141Z,56.53
2023-01-08T11:02:44.745Z,55.29
2023-01-08T11:03:45.038Z,56.00
2023-01-08T11:04:44.769Z,56.11
2023-01-08T11:05:44.768Z,54.01
2023-01-08T11:06:45.700Z,53.97
2023-01-08T11:07:44.974Z,55.67
2023-01-08T11:08:44.950Z,55.90
2023-01-08T11:09:44.855Z,55.62
2023-01-08T11:10:44.833Z,54.50
2023-01-08T11:11:44.476Z,55.36
2023-01-08T11:12:44.567Z,56.74
2023-01-08T11:13:44.474Z,56.57
2023-01-08T11:14:44.682Z,56.29
2023-01-08T11:15:44.546Z,53.44
2023-01-08T11:16:44.687Z,54.62
2023-01-08T11:17:44.607Z,55.52
2023-01-08T11:18:44.531Z,54.67
2023-01-08T11:19:44.544Z,56.94
2023-01-08T11:20:44.468Z,55.58
2023-01-08T11:21:44.479Z,56.06
2023-01-08T11:22:45.534Z,55.36
2023-01-08T11:23:44.470Z,54.96
2023-01-08T11:24:44.452Z,53.62
2023-01-08T11:25:44.480Z,55.79
2023-01-08T11:26:44.467Z,54.47
2023-01-08T11:27:44.579Z,56.69
2023-01-08T11:28:44.497Z,56.92
2023-01-08T11:29:44.554Z,54.56
2023-01-08T11:30:44.437Z,53.33
2023-01-08T11:31:44.479Z,57.55
2023-01-08T11:32:44.407Z,54.72
2023-01-08T11:33:44.447Z,53.99
2023-01-08T11:34:44.392Z,52.37
2023-01-08T11:36:07.869Z,54.21
2023-01-08T11:36:44.288Z,55.31
2023-01-08T11:37:44.537Z,55.22
2023-01-08T11:38:44.822Z,55.25
2023-01-08T11:39:44.475Z,56.29
2023-01-08T11:40:44.306Z,57.10
2023-01-08T11:41:44.854Z,55.17
2023-01-08T11:42:44.414Z,55.22
2023-01-08T11:43:44.450Z,53.82
2023-01-08T11:44:44.370Z,53.30
2023-01-08T11:45:44.690Z,55.06
2023-01-08T11:46:44.429Z,55.35
2023-01-08T11:47:44.233Z,55.91
2023-01-08T11:48:44.151Z,56.66
2023-01-08T11:49:44.355Z,56.58
2023-01-08T11:50:44.468Z,55.68
2023-01-08T11:51:44.493Z,55.54
2023-01-08T11:52:44.582Z,54.72
2023-01-08T11:53:44.221Z,54.40
2023-01-08T11:54:44.417Z,57.31
2023-01-08T11:55:44.391Z,55.86
2023-01-08T11:56:44.631Z,54.37
2023-01-08T11:57:45.065Z,54.65
2023-01-08T11:58:44.219Z,56.76
2023-01-08T11:59:44.239Z,55.50
2023-01-08T12:00:44.342Z,56.90
2023-01-08T12:01:44.344Z,56.57
2023-01-08T12:02:45.526Z,55.87
2023-01-08T12:03:44.465Z,55.52
2023-01-08T12:04:44.172Z,56.31
2023-01-08T12:05:44.440Z,55.80
2023-01-08T12:06:44.153Z,55.62
2023-01-08T12:07:44.159Z,54.38
2023-01-08T12:08:44.194Z,52.67
2023-01-08T12:09:44.062Z,52.51
2023-01-08T12:10:44.146Z,57.09
2023-01-08T12:11:44.144Z,55.72
2023-01-08T12:12:44.163Z,54.72
2023-01-08T12:13:44.410Z,55.63
2023-01-08T13:06:55.757Z,53.82
2023-01-08T13:07:55.713Z,55.91
2023-01-08T13:08:55.818Z,55.36
2023-01-08T13:09:55.539Z,54.59
2023-01-08T13:10:56.024Z,55.93
2023-01-08T13:11:55.523Z,56.43
2023-01-08T13:12:55.600Z,57.01
2023-01-08T13:13:55.283Z,56.52
2023-01-08T13:14:55.525Z,56.43
2023-01-08T13:15:55.736Z,55.14
2023-01-08T13:16:55.920Z,57.41
2023-01-08T13:17:55.651Z,55.62
2023-01-08T13:18:55.784Z,55.06
2023-01-08T13:19:55.579Z,55.62
2023-01-08T13:20:55.607Z,56.64
2023-01-08T13:21:55.801Z,55.44
2023-01-08T13:22:55.515Z,55.28
2023-01-08T13:23:55.516Z,55.77
2023-01-08T13:24:55.506Z,57.12
2023-01-08T13:25:55.502Z,54.72
2023-01-08T13:26:55.592Z,54.03
2023-01-08T13:27:56.144Z,55.42
2023-01-08T13:28:55.561Z,56.69
2023-01-08T13:29:55.660Z,55.87
2023-01-08T13:30:55.481Z,55.21
2023-01-08T13:31:55.732Z,56.80
2023-01-08T13:32:55.514Z,54.66
2023-01-08T13:33:55.789Z,53.86
2023-01-08T13:34:55.721Z,55.79
2023-01-08T13:35:55.302Z,54.96
2023-01-08T13:36:55.486Z,54.68
2023-01-08T13:37:55.549Z,54.63
2023-01-08T13:38:56.299Z,54.98
2023-01-08T13:39:55.488Z,52.95
2023-01-08T13:40:55.720Z,55.69
2023-01-08T13:41:55.527Z,55.18
2023-01-08T13:42:55.625Z,54.87
2023-01-08T13:43:55.107Z,56.31
2023-01-08T13:44:55.325Z,56.60
2023-01-08T13:45:55.780Z,55.58
2023-01-08T13:46:55.502Z,54.80
2023-01-08T13:47:55.455Z,55.15
2023-01-08T13:48:56.684Z,56.85